createdAt,value
2018-06-02T00:00:49.531Z,6.7
2018-06-02T00:02:49.861Z,6.8
2018-06-02T00:04:49.499Z,8.7
2018-06-02T00:06:49.831Z,7.1
2018-06-02T00:08:50.143Z,7.1
2018-06-02T00:10:50.422Z,7.1
2018-06-02T00:12:49.700Z,7.3
2018-06-02T00:14:49.998Z,7.1
2018-06-02T00:16:50.381Z,7.0
2018-06-02T00:18:49.668Z,7.0
2018-06-02T00:20:50.008Z,9.5
2018-06-02T00:22:50.255Z,9.5
2018-06-02T00:24:50.430Z,8.0
2018-06-02T00:26:49.857Z,7.9
2018-06-02T00:28:50.175Z,8.3
2018-06-02T00:30:49.507Z,8.3
2018-06-02T00:32:49.736Z,7.7
2018-06-02T00:34:50.204Z,7.7
2018-06-02T00:36:49.528Z,7.7
2018-06-02T00:38:49.749Z,8.4
2018-06-02T00:40:50.118Z,8.4
2018-06-02T00:42:50.328Z,8.1
2018-06-02T00:44:49.560Z,8.2
2018-06-02T00:46:50.013Z,8.4
2018-06-02T00:48:50.276Z,8.6
2018-06-02T00:50:49.598Z,8.6
2018-06-02T00:52:49.955Z,8.8
2018-06-02T00:54:50.370Z,9.9
2018-06-02T00:56:49.710Z,8.7
2018-06-02T00:58:49.974Z,8.7
2018-06-02T01:00:50.249Z,8.8
2018-06-02T01:02:49.461Z,8.8
2018-06-02T01:04:49.838Z,8.5
2018-06-02T01:06:50.249Z,9.2
2018-06-02T01:08:50.450Z,9.2
2018-06-02T01:10:49.692Z,7.9
2018-06-02T01:12:49.888Z,8.5
2018-06-02T01:14:50.178Z,8.3
2018-06-02T01:16:49.499Z,8.3
2018-06-02T01:18:49.807Z,8.2
2018-06-02T01:20:50.138Z,8.2
2018-06-02T01:22:49.747Z,8.5
2018-06-02T01:24:50.035Z,8.9
2018-06-02T01:26:49.541Z,8.9
2018-06-02T01:28:49.820Z,8.2
2018-06-02T01:30:50.240Z,11.1
2018-06-02T01:32:49.515Z,8.7
2018-06-02T01:34:50.051Z,8.8
2018-06-02T01:36:49.454Z,8.8
2018-06-02T01:38:49.737Z,8.4
2018-06-02T01:40:50.117Z,8.4
2018-06-02T01:42:50.436Z,8.9
2018-06-02T01:44:49.735Z,8.8
2018-06-02T01:46:50.182Z,8.8
2018-06-02T01:48:49.662Z,9.3
2018-06-02T01:50:49.861Z,8.9
2018-06-02T01:52:50.116Z,9.4
2018-06-02T01:54:50.352Z,9.2
2018-06-02T01:56:49.752Z,9.2
2018-06-02T01:58:49.970Z,9.5
2018-06-02T02:00:50.167Z,9.1
2018-06-02T02:02:49.712Z,9.3
2018-06-02T02:04:50.267Z,9.6
2018-06-02T02:06:49.624Z,9.6
2018-06-02T02:08:49.920Z,8.9
2018-06-02T02:10:50.267Z,9.5
2018-06-02T02:12:49.501Z,9.0
2018-06-02T02:14:49.793Z,9.0
2018-06-02T02:16:50.283Z,9.9
2018-06-02T02:18:49.592Z,9.9
2018-06-02T02:20:49.934Z,10.1
2018-06-02T02:22:50.289Z,10.1
2018-06-02T02:24:49.637Z,9.4
2018-06-02T02:26:50.063Z,9.4
2018-06-02T02:28:50.336Z,9.1
2018-06-02T02:30:49.672Z,9.2
2018-06-02T02:32:50.036Z,9.2
2018-06-02T02:34:49.492Z,10.3
2018-06-02T02:36:49.825Z,10.3
2018-06-02T02:38:50.167Z,10.0
2018-06-02T02:40:49.498Z,10.0
2018-06-02T02:42:49.749Z,10.0
2018-06-02T02:44:49.979Z,9.7
2018-06-02T02:46:50.447Z,9.7
2018-06-02T02:48:49.758Z,10.6
2018-06-02T02:50:50.021Z,10.1
2018-06-02T02:52:50.428Z,10.1
2018-06-02T02:54:49.836Z,10.2
2018-06-02T02:56:49.547Z,10.7
2018-06-02T02:58:50.116Z,10.5
2018-06-02T03:00:49.461Z,9.8
2018-06-02T03:02:49.691Z,9.8
2018-06-02T03:04:50.176Z,9.9
2018-06-02T03:06:49.719Z,9.9
2018-06-02T03:08:49.932Z,10.2
2018-06-02T03:10:50.151Z,10.7
2018-06-02T03:12:49.453Z,10.7
2018-06-02T03:14:49.756Z,11.2
2018-06-02T03:16:50.127Z,10.0
2018-06-02T03:18:50.369Z,11.0
2018-06-02T03:20:49.678Z,10.8
2018-06-02T03:22:50.019Z,10.8
2018-06-02T03:24:50.287Z,11.6
2018-06-02T03:26:49.680Z,11.2
2018-06-02T03:28:50.018Z,11.0
2018-06-02T03:30:50.327Z,11.0
2018-06-02T03:32:49.759Z,11.7
2018-06-02T03:34:50.401Z,10.9
2018-06-02T03:36:49.864Z,10.9
2018-06-02T03:38:50.172Z,10.7
2018-06-02T03:40:50.420Z,10.7
2018-06-02T03:42:49.649Z,10.4
2018-06-02T03:44:49.964Z,11.0
2018-06-02T03:46:49.463Z,11.0
2018-06-02T03:48:49.762Z,11.1
2018-06-02T03:50:50.084Z,11.1
2018-06-02T03:52:50.335Z,11.4
2018-06-02T03:54:49.594Z,11.4
2018-06-02T03:56:49.987Z,11.4
2018-06-02T03:58:50.296Z,11.4
2018-06-02T04:00:49.539Z,10.8
2018-06-02T04:02:49.797Z,10.8
2018-06-02T04:04:50.208Z,10.8
2018-06-02T04:06:49.558Z,11.9
2018-06-02T04:08:49.850Z,13.5
2018-06-02T04:10:50.055Z,13.5
2018-06-02T04:12:50.352Z,12.2
2018-06-02T04:14:49.543Z,13.8
2018-06-02T04:16:49.854Z,12.9
2018-06-02T04:18:50.083Z,12.9
2018-06-02T04:20:50.290Z,12.8
2018-06-02T04:22:49.452Z,12.0
2018-06-02T04:24:49.598Z,12.0
2018-06-02T04:26:50.426Z,11.9
2018-06-02T04:28:49.689Z,12.2
2018-06-02T04:30:49.887Z,12.2
2018-06-02T04:32:50.070Z,12.6
2018-06-02T04:34:49.485Z,12.9
2018-06-02T04:36:49.808Z,12.9
2018-06-02T04:38:50.006Z,11.8
2018-06-02T04:40:50.212Z,11.8
2018-06-02T04:42:50.430Z,11.5
2018-06-02T04:44:49.634Z,10.6
2018-06-02T04:46:50.036Z,11.1
2018-06-02T04:48:50.262Z,10.7
2018-06-02T04:50:49.492Z,10.7
2018-06-02T04:52:49.695Z,10.2
2018-06-02T04:54:49.930Z,10.1
2018-06-02T04:56:50.330Z,10.5
2018-06-02T04:58:49.792Z,10.5
2018-06-02T05:00:49.996Z,10.5
2018-06-02T05:02:50.224Z,10.7
2018-06-02T05:04:49.615Z,10.7
2018-06-02T05:06:49.947Z,10.8
2018-06-02T05:08:50.168Z,10.8
2018-06-02T05:10:50.362Z,12.1
2018-06-02T05:12:49.689Z,10.5
2018-06-02T05:14:49.962Z,10.7
2018-06-02T05:16:50.315Z,10.7
2018-06-02T05:18:49.522Z,10.5
2018-06-02T05:20:49.799Z,10.4
2018-06-02T05:22:50.124Z,10.7
2018-06-02T05:24:50.313Z,10.7
2018-06-02T05:26:49.656Z,10.7
2018-06-02T05:28:49.890Z,11.1
2018-06-02T05:30:50.115Z,10.8
2018-06-02T05:32:50.314Z,10.5
2018-06-02T05:34:49.824Z,10.3
2018-06-02T05:36:49.745Z,10.3
2018-06-02T05:38:49.928Z,10.2
2018-06-02T05:40:50.158Z,10.6
2018-06-02T05:42:50.424Z,11.1
2018-06-02T05:44:49.734Z,11.1
2018-06-02T05:46:49.999Z,11.1
2018-06-02T05:48:50.240Z,11.5
2018-06-02T05:50:49.521Z,11.5
2018-06-02T05:52:49.845Z,11.2
2018-06-02T05:54:49.984Z,11.0
2018-06-02T05:56:50.392Z,11.2
2018-06-02T05:58:49.556Z,11.2
2018-06-02T06:00:49.745Z,12.5
2018-06-02T06:02:49.901Z,12.4
2018-06-02T06:04:50.423Z,12.4
2018-06-02T06:06:49.727Z,12.6
2018-06-02T06:08:49.911Z,12.6
2018-06-02T06:10:50.151Z,13.2
2018-06-02T06:12:50.280Z,12.4
2018-06-02T06:14:50.436Z,12.0
2018-06-02T06:16:49.807Z,12.0
2018-06-02T06:18:50.046Z,10.3
2018-06-02T06:20:50.196Z,10.7
2018-06-02T06:22:49.494Z,13.0
2018-06-02T06:24:49.808Z,13.0
2018-06-02T06:26:50.320Z,10.6
2018-06-02T06:28:49.828Z,13.0
2018-06-02T06:30:49.999Z,12.0
2018-06-02T06:32:50.270Z,12.0
2018-06-02T06:34:49.839Z,10.2
2018-06-02T06:36:50.242Z,9.8
2018-06-02T06:38:49.475Z,9.3
2018-06-02T06:40:49.663Z,8.3
2018-06-02T06:42:49.879Z,8.3
2018-06-02T06:44:50.105Z,8.9
2018-06-02T06:46:50.397Z,7.6
2018-06-02T06:48:49.651Z,8.6
2018-06-02T06:50:49.883Z,8.6
2018-06-02T06:52:50.071Z,8.2
2018-06-02T06:54:50.319Z,7.6
2018-06-02T06:56:49.702Z,7.2
2018-06-02T06:58:49.944Z,6.6
2018-06-02T07:00:50.205Z,6.6
2018-06-02T07:02:50.419Z,7.1
2018-06-02T07:04:49.853Z,6.7
2018-06-02T07:06:50.068Z,6.5
2018-06-02T07:08:50.261Z,6.5
2018-06-02T07:10:49.721Z,6.3
2018-06-02T07:12:49.942Z,6.1
2018-06-02T07:14:50.187Z,6.1
2018-06-02T07:16:49.531Z,6.3
2018-06-02T07:18:49.744Z,6.5
2018-06-02T07:20:50.010Z,8.8
2018-06-02T07:22:50.197Z,6.6
2018-06-02T07:24:50.446Z,6.6
2018-06-02T07:26:50.140Z,6.5
2018-06-02T07:28:50.301Z,5.8
2018-06-02T07:30:49.523Z,5.8
2018-06-02T07:32:49.778Z,6.4
2018-06-02T07:34:50.182Z,5.0
2018-06-02T07:36:49.567Z,5.2
2018-06-02T07:38:49.759Z,5.3
2018-06-02T07:40:49.930Z,5.3
2018-06-02T07:42:50.129Z,5.3
2018-06-02T07:44:50.296Z,6.0
2018-06-02T07:46:49.549Z,5.2
2018-06-02T07:48:49.775Z,4.8
2018-06-02T07:50:49.921Z,4.8
2018-06-02T07:52:50.113Z,6.2
2018-06-02T07:54:50.281Z,8.6
2018-06-02T07:56:49.519Z,5.7
2018-06-02T07:58:49.742Z,5.7
2018-06-02T08:00:49.973Z,6.0
2018-06-02T08:02:50.235Z,6.7
2018-06-02T08:04:49.661Z,5.3
2018-06-02T08:06:50.098Z,6.0
2018-06-02T08:08:50.328Z,6.0
2018-06-02T08:10:49.554Z,5.1
2018-06-02T08:12:49.753Z,5.4
2018-06-02T08:14:49.946Z,5.4
2018-06-02T08:16:50.295Z,5.2
2018-06-02T08:18:49.484Z,5.2
2018-06-02T08:20:49.654Z,4.9
2018-06-02T08:22:49.835Z,5.2
2018-06-02T08:24:50.037Z,5.0
2018-06-02T08:26:50.322Z,5.1
2018-06-02T08:28:49.552Z,5.5
2018-06-02T08:30:49.739Z,5.5
2018-06-02T08:32:49.989Z,6.6
2018-06-02T08:34:49.572Z,5.7
2018-06-02T08:36:50.049Z,5.7
2018-06-02T08:38:50.225Z,5.7
2018-06-02T08:40:49.663Z,5.5
2018-06-02T08:42:49.974Z,5.2
2018-06-02T08:44:50.097Z,5.2
2018-06-02T08:46:50.419Z,6.1
2018-06-02T08:48:49.654Z,6.1
2018-06-02T08:50:49.899Z,4.3
2018-06-02T08:52:50.092Z,4.6
2018-06-02T08:54:50.370Z,5.2
2018-06-02T08:56:49.682Z,5.2
2018-06-02T08:58:49.843Z,4.5
2018-06-02T09:00:50.054Z,5.0
2018-06-02T09:02:50.330Z,4.4
2018-06-02T09:04:49.699Z,4.4
2018-06-02T09:06:50.101Z,4.4
2018-06-02T09:08:50.267Z,3.8
2018-06-02T09:10:49.464Z,3.8
2018-06-02T09:12:49.779Z,4.0
2018-06-02T09:14:49.978Z,4.2
2018-06-02T09:16:50.304Z,4.2
2018-06-02T09:18:49.475Z,4.0
2018-06-02T09:20:49.677Z,4.5
2018-06-02T09:22:49.883Z,4.5
2018-06-02T09:24:50.110Z,3.7
2018-06-02T09:26:49.546Z,3.7
2018-06-02T09:28:49.757Z,4.0
2018-06-02T09:30:49.977Z,5.4
2018-06-02T09:32:50.175Z,5.4
2018-06-02T09:34:49.576Z,4.0
2018-06-02T09:36:49.924Z,4.0
2018-06-02T09:38:50.218Z,4.2
2018-06-02T09:40:50.424Z,4.2
2018-06-02T09:42:49.585Z,3.8
2018-06-02T09:44:49.800Z,3.9
2018-06-02T09:46:50.135Z,3.9
2018-06-02T09:48:49.485Z,4.4
2018-06-02T09:50:49.688Z,4.3
2018-06-02T09:52:49.878Z,4.6
2018-06-02T09:54:50.078Z,4.8
2018-06-02T09:56:49.482Z,4.8
2018-06-02T09:58:49.683Z,4.8
2018-06-02T10:00:49.848Z,3.5
2018-06-02T10:02:50.064Z,3.5
2018-06-02T10:04:49.590Z,3.9
2018-06-02T10:06:49.885Z,5.7
2018-06-02T10:08:50.045Z,3.6
2018-06-02T10:10:50.254Z,3.5
2018-06-02T10:12:49.482Z,3.5
2018-06-02T10:14:49.656Z,3.2
2018-06-02T10:16:49.947Z,3.3
2018-06-02T10:18:50.256Z,3.3
2018-06-02T10:20:50.422Z,4.1
2018-06-02T10:22:49.642Z,3.7
2018-06-02T10:24:49.841Z,3.7
2018-06-02T10:26:50.116Z,3.6
2018-06-02T10:28:50.308Z,3.6
2018-06-02T10:30:49.564Z,3.6
2018-06-02T10:32:49.801Z,3.0
2018-06-02T10:34:50.228Z,4.2
2018-06-02T10:36:49.596Z,4.2
2018-06-02T10:38:49.756Z,5.0
2018-06-02T10:40:49.990Z,3.0
2018-06-02T10:42:50.184Z,3.0
2018-06-02T10:44:50.432Z,2.9
2018-06-02T10:46:49.789Z,2.8
2018-06-02T10:48:50.037Z,3.2
2018-06-02T10:50:50.251Z,3.9
2018-06-02T10:52:49.454Z,3.9
2018-06-02T10:54:49.651Z,3.3
2018-06-02T10:56:49.980Z,2.8
2018-06-02T10:58:50.188Z,3.3
2018-06-02T11:00:50.387Z,3.3
2018-06-02T11:02:49.658Z,2.9
2018-06-02T11:04:50.171Z,4.8
2018-06-02T11:06:49.492Z,3.3
2018-06-02T11:08:49.691Z,3.1
2018-06-02T11:10:49.924Z,2.8
2018-06-02T11:12:50.219Z,2.8
2018-06-02T11:14:50.382Z,3.4
2018-06-02T11:16:49.865Z,3.1
2018-06-02T11:18:50.032Z,4.0
2018-06-02T11:20:50.220Z,4.0
2018-06-02T11:22:50.467Z,3.1
2018-06-02T11:24:49.665Z,2.9
2018-06-02T11:26:50.035Z,2.9
2018-06-02T11:28:50.256Z,3.2
2018-06-02T11:30:49.455Z,3.2
2018-06-02T11:32:49.652Z,2.6
2018-06-02T11:34:50.102Z,2.8
2018-06-02T11:36:50.415Z,3.2
2018-06-02T11:38:49.613Z,3.3
2018-06-02T11:40:49.828Z,3.3
2018-06-02T11:42:50.164Z,2.8
2018-06-02T11:44:50.357Z,3.9
2018-06-02T11:46:49.760Z,2.4
2018-06-02T11:48:49.924Z,4.2
2018-06-02T11:50:50.165Z,4.2
2018-06-02T11:52:50.326Z,4.2
2018-06-02T11:54:49.542Z,3.7
2018-06-02T11:56:49.807Z,2.4
2018-06-02T11:58:49.994Z,2.4
2018-06-02T12:00:50.129Z,2.6
2018-06-02T12:02:50.343Z,2.3
2018-06-02T12:04:49.645Z,2.6
2018-06-02T12:06:49.976Z,3.8
2018-06-02T12:08:50.336Z,3.2
2018-06-02T12:10:49.521Z,3.2
2018-06-02T12:12:49.763Z,2.7
2018-06-02T12:14:49.933Z,3.1
2018-06-02T12:16:50.328Z,3.1
2018-06-02T12:18:49.521Z,2.4
2018-06-02T12:20:49.771Z,2.4
2018-06-02T12:22:49.999Z,2.6
2018-06-02T12:24:50.196Z,3.8
2018-06-02T12:26:49.512Z,3.7
2018-06-02T12:28:49.690Z,3.5
2018-06-02T12:30:49.975Z,3.5
2018-06-02T12:32:50.146Z,2.4
2018-06-02T12:34:49.676Z,2.5
2018-06-02T12:36:49.763Z,2.5
2018-06-02T12:38:49.919Z,2.5
2018-06-02T12:40:50.096Z,2.7
2018-06-02T12:42:50.298Z,2.7
2018-06-02T12:44:49.492Z,3.3
2018-06-02T12:46:49.873Z,4.3
2018-06-02T12:48:50.100Z,4.3
2018-06-02T12:50:50.291Z,3.9
2018-06-02T12:52:49.520Z,2.7
2018-06-02T12:54:49.712Z,2.6
2018-06-02T12:56:49.930Z,3.0
2018-06-02T12:58:50.117Z,3.0
2018-06-02T13:00:50.335Z,3.9
2018-06-02T13:02:49.524Z,3.4
2018-06-02T13:04:49.869Z,4.8
2018-06-02T13:06:50.377Z,3.5
2018-06-02T13:08:49.571Z,3.5
2018-06-02T13:10:49.795Z,2.6
2018-06-02T13:12:49.972Z,2.7
2018-06-02T13:14:50.217Z,2.7
2018-06-02T13:16:49.442Z,3.0
2018-06-02T13:18:49.613Z,3.0
2018-06-02T13:20:49.785Z,2.7
2018-06-02T13:22:49.970Z,5.2
2018-06-02T13:24:50.218Z,3.6
2018-06-02T13:26:49.583Z,2.5
2018-06-02T13:28:49.904Z,2.5
2018-06-02T13:30:50.144Z,2.5
2018-06-02T13:32:50.342Z,2.5
2018-06-02T13:34:49.798Z,2.7
2018-06-02T13:36:50.110Z,2.9
2018-06-02T13:38:50.329Z,2.9
2018-06-02T13:40:49.573Z,2.3
2018-06-02T13:42:49.752Z,2.3
2018-06-02T13:44:49.951Z,2.5
2018-06-02T13:46:50.287Z,2.5
2018-06-02T13:48:49.453Z,3.3
2018-06-02T13:50:49.710Z,2.5
2018-06-02T13:52:49.954Z,2.6
2018-06-02T13:54:50.151Z,2.6
2018-06-02T13:56:50.406Z,2.6
2018-06-02T13:58:49.635Z,2.6
2018-06-02T14:00:49.843Z,3.4
2018-06-02T14:02:50.129Z,2.7
2018-06-02T14:04:49.759Z,2.7
2018-06-02T14:06:50.036Z,2.7
2018-06-02T14:08:50.206Z,2.8
2018-06-02T14:10:50.433Z,2.8
2018-06-02T14:12:49.599Z,2.9
2018-06-02T14:14:49.828Z,2.9
2018-06-02T14:16:50.107Z,2.9
2018-06-02T14:18:50.362Z,2.8
2018-06-02T14:20:49.534Z,2.9
2018-06-02T14:22:49.731Z,3.3
2018-06-02T14:24:49.920Z,3.3
2018-06-02T14:26:50.235Z,2.7
2018-06-02T14:28:50.415Z,3.4
2018-06-02T14:30:49.639Z,3.4
2018-06-02T14:32:50.152Z,2.8
2018-06-02T14:34:49.533Z,2.6
2018-06-02T14:36:49.905Z,3.9
2018-06-02T14:38:50.330Z,2.9
2018-06-02T14:40:49.542Z,2.8
2018-06-02T14:42:49.789Z,2.8
2018-06-02T14:44:50.099Z,3.2
2018-06-02T14:46:49.701Z,2.9
2018-06-02T14:48:49.984Z,3.3
2018-06-02T14:50:50.284Z,3.3
2018-06-02T14:52:49.476Z,3.3
2018-06-02T14:54:49.689Z,3.1
2018-06-02T14:56:50.002Z,2.9
2018-06-02T14:58:50.177Z,3.6
2018-06-02T15:00:50.400Z,2.7
2018-06-02T15:02:49.634Z,3.4
2018-06-02T15:04:50.000Z,3.4
2018-06-02T15:06:50.300Z,3.1
2018-06-02T15:08:49.476Z,3.1
2018-06-02T15:10:49.737Z,3.1
2018-06-02T15:12:49.916Z,3.1
2018-06-02T15:14:50.143Z,3.0
2018-06-02T15:16:50.438Z,3.5
2018-06-02T15:18:49.630Z,3.5
2018-06-02T15:20:49.777Z,3.0
2018-06-02T15:22:49.979Z,3.0
2018-06-02T15:24:50.183Z,3.1
2018-06-02T15:26:49.751Z,2.9
2018-06-02T15:28:49.952Z,3.7
2018-06-02T15:30:50.140Z,2.8
2018-06-02T15:32:50.387Z,2.8
2018-06-02T15:34:49.718Z,2.7
2018-06-02T15:36:50.120Z,2.8
2018-06-02T15:38:50.351Z,2.7
2018-06-02T15:40:49.527Z,2.7
2018-06-02T15:42:49.680Z,3.1
2018-06-02T15:44:49.830Z,3.1
2018-06-02T15:46:50.243Z,3.4
2018-06-02T15:48:50.403Z,3.4
2018-06-02T15:50:49.620Z,2.7
2018-06-02T15:52:49.829Z,3.4
2018-06-02T15:54:50.048Z,3.4
2018-06-02T15:56:50.342Z,2.6
2018-06-02T15:58:49.543Z,2.9
2018-06-02T16:00:49.688Z,2.9
2018-06-02T16:02:49.893Z,2.9
2018-06-02T16:04:50.402Z,2.8
2018-06-02T16:06:49.726Z,2.8
2018-06-02T16:08:49.895Z,2.9
2018-06-02T16:10:50.046Z,2.9
2018-06-02T16:12:50.327Z,2.7
2018-06-02T16:14:49.938Z,2.6
2018-06-02T16:16:50.258Z,2.6
2018-06-02T16:18:49.521Z,3.7
2018-06-02T16:20:49.752Z,4.5
2018-06-02T16:22:49.960Z,3.8
2018-06-02T16:24:50.220Z,2.9
2018-06-02T16:26:49.601Z,2.6
2018-06-02T16:28:49.775Z,2.6
2018-06-02T16:30:50.054Z,2.2
2018-06-02T16:32:50.246Z,2.6
2018-06-02T16:34:49.685Z,2.6
2018-06-02T16:36:50.067Z,2.7
2018-06-02T16:38:50.296Z,2.7
2018-06-02T16:40:49.537Z,3.4
2018-06-02T16:42:49.705Z,3.4
2018-06-02T16:44:49.910Z,2.9
2018-06-02T16:46:50.180Z,2.8
2018-06-02T16:48:50.303Z,2.8
2018-06-02T16:50:49.540Z,2.5
2018-06-02T16:52:49.704Z,2.6
2018-06-02T16:54:49.875Z,2.2
2018-06-02T16:56:50.191Z,4.0
2018-06-02T16:58:50.417Z,4.0
2018-06-02T17:00:49.667Z,2.7
2018-06-02T17:02:49.821Z,2.6
2018-06-02T17:04:50.355Z,3.0
2018-06-02T17:06:49.753Z,2.6
2018-06-02T17:08:49.932Z,2.6
2018-06-02T17:10:50.286Z,2.7
2018-06-02T17:12:49.537Z,3.7
2018-06-02T17:14:49.700Z,3.0
2018-06-02T17:16:50.078Z,3.0
2018-06-02T17:18:50.314Z,2.8
2018-06-02T17:20:49.544Z,3.5
2018-06-02T17:22:49.772Z,3.3
2018-06-02T17:24:49.976Z,2.8
2018-06-02T17:26:50.308Z,2.8
2018-06-02T17:28:49.503Z,3.2
2018-06-02T17:30:49.803Z,3.5
2018-06-02T17:32:50.032Z,2.8
2018-06-02T17:34:49.516Z,3.0
2018-06-02T17:36:49.767Z,3.0
2018-06-02T17:38:50.022Z,2.9
2018-06-02T17:40:50.279Z,3.0
2018-06-02T17:42:49.458Z,2.9
2018-06-02T17:44:49.625Z,3.4
2018-06-02T17:46:50.017Z,3.4
2018-06-02T17:48:50.339Z,3.1
2018-06-02T17:50:49.533Z,4.3
2018-06-02T17:52:49.740Z,3.3
2018-06-02T17:54:49.960Z,3.3
2018-06-02T17:56:50.319Z,3.3
2018-06-02T17:58:49.616Z,3.6
2018-06-02T18:00:49.862Z,3.2
2018-06-02T18:02:50.043Z,3.0
2018-06-02T18:04:49.553Z,3.0
2018-06-02T18:06:49.808Z,3.1
2018-06-02T18:08:50.059Z,3.4
2018-06-02T18:10:50.231Z,3.4
2018-06-02T18:12:49.445Z,3.5
2018-06-02T18:14:49.624Z,3.5
2018-06-02T18:16:49.957Z,3.8
2018-06-02T18:18:50.225Z,3.3
2018-06-02T18:20:49.752Z,3.3
2018-06-02T18:22:49.945Z,3.6
2018-06-02T18:24:50.118Z,3.6
2018-06-02T18:26:49.562Z,3.4
2018-06-02T18:28:49.766Z,3.4
2018-06-02T18:30:49.925Z,3.0
2018-06-02T18:32:50.128Z,3.3
2018-06-02T18:34:49.453Z,3.3
2018-06-02T18:36:49.818Z,4.1
2018-06-02T18:38:50.116Z,4.1
2018-06-02T18:40:50.328Z,3.2
2018-06-02T18:42:49.601Z,3.2
2018-06-02T18:44:49.820Z,3.1
2018-06-02T18:46:50.099Z,3.6
2018-06-02T18:48:50.271Z,3.4
2018-06-02T18:50:49.481Z,3.9
2018-06-02T18:52:49.615Z,3.9
2018-06-02T18:54:49.833Z,3.9
2018-06-02T18:56:50.158Z,3.5
2018-06-02T18:58:50.359Z,3.5
2018-06-02T19:00:49.563Z,3.7
2018-06-02T19:02:49.744Z,3.7
2018-06-02T19:04:50.149Z,3.5
2018-06-02T19:06:49.458Z,3.2
2018-06-02T19:08:49.621Z,3.1
2018-06-02T19:10:49.839Z,3.1
2018-06-02T19:12:50.130Z,3.6
2018-06-02T19:14:50.373Z,4.3
2018-06-02T19:16:49.566Z,4.0
2018-06-02T19:18:49.727Z,3.7
2018-06-02T19:20:49.886Z,4.4
2018-06-02T19:22:50.088Z,4.4
2018-06-02T19:24:50.322Z,4.0
2018-06-02T19:26:49.686Z,3.8
2018-06-02T19:28:49.896Z,5.5
2018-06-02T19:30:50.093Z,4.6
2018-06-02T19:32:50.290Z,4.6
2018-06-02T19:34:49.607Z,3.8
2018-06-02T19:36:49.965Z,4.2
2018-06-02T19:38:50.142Z,4.2
2018-06-02T19:40:50.325Z,3.9
2018-06-02T19:42:49.569Z,4.8
2018-06-02T19:44:49.779Z,4.3
2018-06-02T19:46:50.062Z,4.3
2018-06-02T19:48:50.281Z,4.5
2018-06-02T19:50:49.510Z,6.4
2018-06-02T19:52:49.699Z,6.4
2018-06-02T19:54:49.872Z,7.2
2018-06-02T19:56:50.156Z,6.2
2018-06-02T19:58:50.339Z,4.8
2018-06-02T20:00:49.542Z,4.9
2018-06-02T20:02:49.879Z,4.9
2018-06-02T20:04:50.399Z,4.9
2018-06-02T20:06:49.691Z,5.1
2018-06-02T20:08:49.839Z,7.6
2018-06-02T20:10:50.022Z,7.6
2018-06-02T20:12:50.183Z,4.9
2018-06-02T20:14:50.351Z,6.3
2018-06-02T20:16:50.123Z,5.7
2018-06-02T20:18:50.350Z,5.6
2018-06-02T20:20:49.563Z,5.6
2018-06-02T20:22:49.717Z,6.0
2018-06-02T20:24:49.953Z,5.3
2018-06-02T20:26:50.345Z,5.3
2018-06-02T20:28:49.643Z,5.5
2018-06-02T20:30:49.876Z,5.5
2018-06-02T20:32:50.034Z,7.4
2018-06-02T20:34:49.509Z,5.4
2018-06-02T20:36:49.737Z,5.4
2018-06-02T20:38:49.923Z,5.4
2018-06-02T20:40:50.138Z,5.5
2018-06-02T20:42:50.367Z,6.5
2018-06-02T20:44:49.505Z,5.6
2018-06-02T20:46:49.926Z,6.0
2018-06-02T20:48:50.120Z,5.7
2018-06-02T20:50:50.315Z,5.7
2018-06-02T20:52:49.550Z,7.4
2018-06-02T20:54:49.742Z,5.7
2018-06-02T20:56:49.975Z,5.7
2018-06-02T20:58:50.174Z,5.7
2018-06-02T21:00:49.603Z,5.8
2018-06-02T21:02:49.753Z,5.9
2018-06-02T21:04:50.180Z,6.8
2018-06-02T21:06:49.564Z,6.7
2018-06-02T21:08:49.804Z,6.7
2018-06-02T21:10:50.358Z,7.1
2018-06-02T21:12:49.578Z,6.7
2018-06-02T21:14:49.777Z,6.7
2018-06-02T21:16:50.059Z,6.7
2018-06-02T21:18:50.237Z,6.3
2018-06-02T21:20:50.423Z,6.6
2018-06-02T21:22:49.594Z,6.3
2018-06-02T21:24:49.751Z,6.3
2018-06-02T21:26:50.109Z,6.4
2018-06-02T21:28:50.365Z,6.4
2018-06-02T21:30:49.557Z,6.6
2018-06-02T21:32:49.717Z,6.3
2018-06-02T21:34:50.133Z,7.5
2018-06-02T21:36:49.524Z,6.9
2018-06-02T21:38:49.717Z,6.9
2018-06-02T21:40:49.911Z,7.9
2018-06-02T21:42:50.138Z,6.6
2018-06-02T21:44:50.364Z,6.7
2018-06-02T21:46:49.700Z,6.7
2018-06-02T21:48:49.927Z,7.0
2018-06-02T21:50:50.120Z,6.5
2018-06-02T21:52:50.337Z,6.8
2018-06-02T21:54:49.540Z,6.8
2018-06-02T21:56:49.982Z,6.7
2018-06-02T21:58:50.243Z,6.7
2018-06-02T22:00:50.438Z,6.7
2018-06-02T22:02:49.611Z,7.6
2018-06-02T22:04:49.996Z,6.9
2018-06-02T22:06:50.244Z,6.9
2018-06-02T22:08:50.425Z,7.0
2018-06-02T22:10:49.668Z,6.8
2018-06-02T22:12:49.960Z,6.9
2018-06-02T22:14:50.268Z,7.6
2018-06-02T22:16:49.716Z,7.6
2018-06-02T22:18:49.985Z,7.9
2018-06-02T22:20:50.194Z,8.0
2018-06-02T22:22:50.407Z,8.2
2018-06-02T22:24:49.614Z,8.2
2018-06-02T22:26:50.047Z,8.0
2018-06-02T22:28:50.248Z,8.7
2018-06-02T22:30:49.578Z,7.6
2018-06-02T22:32:49.842Z,7.6
2018-06-02T22:34:50.273Z,7.3
2018-06-02T22:36:49.611Z,7.3
2018-06-02T22:38:49.834Z,7.4
2018-06-02T22:40:50.029Z,8.5
2018-06-02T22:42:50.295Z,8.6
2018-06-02T22:44:49.898Z,8.6
2018-06-02T22:46:50.243Z,8.3
2018-06-02T22:48:49.465Z,9.0
2018-06-02T22:50:49.656Z,9.0
2018-06-02T22:52:49.832Z,8.4
2018-06-02T22:54:49.992Z,8.4
2018-06-02T22:56:50.352Z,9.1
2018-06-02T22:58:49.486Z,9.2
2018-06-02T23:00:49.671Z,8.5
2018-06-02T23:02:49.891Z,8.8
2018-06-02T23:04:50.305Z,8.8
2018-06-02T23:06:49.589Z,9.6
2018-06-02T23:08:49.764Z,9.6
2018-06-02T23:10:49.992Z,9.6
2018-06-02T23:12:50.205Z,9.6
2018-06-02T23:14:49.483Z,11.3
2018-06-02T23:16:49.772Z,10.4
2018-06-02T23:18:50.001Z,10.9
2018-06-02T23:20:50.177Z,9.8
2018-06-02T23:22:50.335Z,10.9
2018-06-02T23:24:49.475Z,10.9
2018-06-02T23:26:49.810Z,11.5
2018-06-02T23:28:50.044Z,11.4
2018-06-02T23:30:50.342Z,11.7
2018-06-02T23:32:49.986Z,11.7
2018-06-02T23:34:50.406Z,11.0
2018-06-02T23:36:49.646Z,11.4
2018-06-02T23:38:49.894Z,11.4
2018-06-02T23:40:50.107Z,11.4
2018-06-02T23:42:50.300Z,11.0
2018-06-02T23:44:49.480Z,11.9
2018-06-02T23:46:49.770Z,11.7
2018-06-02T23:48:49.992Z,11.5
2018-06-02T23:50:50.325Z,11.5
2018-06-02T23:52:49.541Z,11.8
2018-06-02T23:54:49.749Z,11.1
2018-06-02T23:56:50.027Z,11.8
2018-06-02T23:58:50.205Z,12.0
